createdAt,value
2022-09-01T05:59:22.373Z,14.99
2022-09-01T06:01:53.494Z,15.07
2022-09-01T06:04:57.366Z,14.76
2022-09-01T06:08:00.847Z,15.07
2022-09-01T06:11:12.539Z,15.03
2022-09-01T06:14:15.912Z,15.11
2022-09-01T06:17:24.754Z,15.24
2022-09-01T06:20:27.938Z,14.47
2022-09-01T06:23:31.514Z,14.73
2022-09-01T06:26:36.717Z,15.11
2022-09-01T06:29:41.650Z,14.89
2022-09-01T06:32:46.792Z,14.69
2022-09-01T06:35:49.509Z,15.18
2022-09-01T06:38:53.104Z,14.76
2022-09-01T06:41:58.147Z,15.23
2022-09-01T06:45:10.319Z,15.31
2022-09-01T06:48:16.655Z,15.44
2022-09-01T06:51:22.253Z,15.43
2022-09-01T06:54:25.637Z,15.51
2022-09-01T07:00:52.954Z,15.47
2022-09-01T07:03:57.124Z,15.72
2022-09-01T07:10:27.530Z,15.59
2022-09-01T07:13:32.085Z,15.74
2022-09-01T07:17:24.060Z,15.98
2022-09-01T07:20:29.315Z,16.03
2022-09-01T07:23:46.281Z,16.01
2022-09-01T07:26:53.581Z,15.73
2022-09-01T07:29:59.495Z,15.90
2022-09-01T07:36:28.003Z,15.93
2022-09-01T07:42:30.043Z,15.71
2022-09-01T07:42:30.882Z,16.01
2022-09-01T07:49:52.401Z,15.92
2022-09-01T07:52:57.882Z,16.03
2022-09-01T07:56:07.534Z,16.02
2022-09-01T07:59:14.792Z,16.18
2022-09-01T08:02:19.542Z,16.22
2022-09-01T08:05:29.268Z,16.05
2022-09-01T08:08:41.580Z,16.09
2022-09-01T08:12:11.702Z,16.48
2022-09-01T08:15:41.270Z,16.77
2022-09-01T08:19:53.468Z,16.20
2022-09-01T08:26:36.799Z,17.08
2022-09-01T08:29:55.146Z,17.17
2022-09-01T08:33:11.025Z,17.24
2022-09-01T08:36:26.042Z,16.53
2022-09-01T08:39:35.310Z,16.55
2022-09-01T08:42:47.195Z,16.56
2022-09-01T08:45:55.534Z,17.40
2022-09-01T08:53:09.144Z,16.74
2022-09-01T08:56:37.209Z,17.61
2022-09-01T08:59:56.780Z,17.62
2022-09-01T09:03:43.830Z,17.19
2022-09-01T09:07:08.339Z,17.60
2022-09-01T09:10:26.633Z,17.71
2022-09-01T09:13:32.340Z,17.79
2022-09-01T09:16:43.334Z,17.78
2022-09-01T09:20:23.661Z,17.53
2022-09-01T09:23:33.364Z,17.45
2022-09-01T09:26:43.371Z,17.91
2022-09-01T09:30:12.900Z,18.51
2022-09-01T09:42:12.421Z,18.55
2022-09-01T09:45:34.366Z,18.44
2022-09-01T09:48:38.062Z,18.32
2022-09-01T09:51:43.156Z,18.27
2022-09-01T09:55:23.854Z,18.32
2022-09-01T09:58:30.325Z,18.34
2022-09-01T10:01:32.799Z,18.32
2022-09-01T10:04:37.388Z,18.37
2022-09-01T10:07:39.813Z,18.45
2022-09-01T10:10:45.710Z,18.65
2022-09-01T10:14:53.138Z,18.69
2022-09-01T10:18:28.954Z,18.78
2022-09-01T10:21:45.083Z,18.76
2022-09-01T10:24:50.505Z,18.94
2022-09-01T10:27:58.364Z,19.19
2022-09-01T10:31:05.252Z,19.22
2022-09-01T10:34:42.373Z,19.30
2022-09-01T10:37:54.172Z,19.58
2022-09-01T10:41:15.829Z,20.06
2022-09-01T10:44:21.591Z,20.56
2022-09-01T10:47:33.739Z,20.74
2022-09-01T10:50:37.674Z,21.05
2022-09-01T10:53:41.518Z,21.42
2022-09-01T10:56:52.652Z,21.51
2022-09-01T10:59:58.224Z,21.55
2022-09-01T11:06:42.364Z,21.50
2022-09-01T11:09:49.009Z,21.47
2022-09-01T11:13:22.786Z,21.89
2022-09-01T11:16:49.541Z,22.04
2022-09-01T11:20:00.027Z,22.29
2022-09-01T11:23:27.691Z,23.04
2022-09-01T11:26:35.996Z,23.48
2022-09-01T11:29:59.218Z,23.37
2022-09-01T11:33:17.029Z,23.31
2022-09-01T11:36:38.521Z,24.16
2022-09-01T11:39:56.401Z,24.29
2022-09-01T11:43:17.965Z,23.64
2022-09-01T11:46:25.011Z,23.86
2022-09-01T11:49:37.960Z,23.50
2022-09-01T11:52:41.506Z,24.36
2022-09-01T11:55:51.760Z,24.24
2022-09-01T11:58:54.301Z,23.69
2022-09-01T12:02:00.835Z,24.26
2022-09-01T12:05:04.956Z,24.53
2022-09-01T12:08:18.345Z,25.21
2022-09-01T12:11:33.987Z,25.20
2022-09-01T12:15:02.145Z,25.61
2022-09-01T12:18:14.308Z,25.90
2022-09-01T12:21:23.480Z,26.14
2022-09-01T12:24:39.092Z,25.33
2022-09-01T12:27:43.227Z,24.56
2022-09-01T12:30:47.084Z,25.04
2022-09-01T12:33:52.677Z,25.50
2022-09-01T12:38:09.646Z,25.52
2022-09-01T12:41:35.353Z,24.85
2022-09-01T12:44:37.970Z,25.66
2022-09-01T12:47:50.263Z,25.89
2022-09-01T12:50:53.719Z,25.61
2022-09-01T12:53:58.597Z,25.29
